sensor_id;sensor_type;location;lat;lon;timestamp;temperature;humidity
76239;SHT30;65043;48.392;-4.472;2023-11-18T00:01:55;14.01;89.89
76239;SHT30;65043;48.392;-4.472;2023-11-18T00:04:21;14.01;89.73
76239;SHT30;65043;48.392;-4.472;2023-11-18T00:06:47;14.07;89.30
76239;SHT30;65043;48.392;-4.472;2023-11-18T00:09:13;14.14;88.75
76239;SHT30;65043;48.392;-4.472;2023-11-18T00:11:42;14.14;89.02
76239;SHT30;65043;48.392;-4.472;2023-11-18T00:14:08;14.21;88.63
76239;SHT30;65043;48.392;-4.472;2023-11-18T00:16:35;14.21;88.90
76239;SHT30;65043;48.392;-4.472;2023-11-18T00:19:02;14.25;88.59
76239;SHT30;65043;48.392;-4.472;2023-11-18T00:21:30;14.28;88.53
76239;SHT30;65043;48.392;-4.472;2023-11-18T00:23:55;14.31;88.75
76239;SHT30;65043;48.392;-4.472;2023-11-18T00:26:21;14.31;88.99
76239;SHT30;65043;48.392;-4.472;2023-11-18T00:28:47;14.33;88.77
76239;SHT30;65043;48.392;-4.472;2023-11-18T00:31:14;14.35;89.14
76239;SHT30;65043;48.392;-4.472;2023-11-18T00:33:39;14.36;88.76
76239;SHT30;65043;48.392;-4.472;2023-11-18T00:36:06;14.36;89.51
76239;SHT30;65043;48.392;-4.472;2023-11-18T00:38:32;14.38;89.11
76239;SHT30;65043;48.392;-4.472;2023-11-18T00:40:57;14.42;88.89
76239;SHT30;65043;48.392;-4.472;2023-11-18T00:43:23;14.41;88.86
76239;SHT30;65043;48.392;-4.472;2023-11-18T00:45:48;14.42;88.77
76239;SHT30;65043;48.392;-4.472;2023-11-18T00:48:14;14.49;88.60
76239;SHT30;65043;48.392;-4.472;2023-11-18T00:50:40;14.48;88.70
76239;SHT30;65043;48.392;-4.472;2023-11-18T00:53:06;14.52;88.79
76239;SHT30;65043;48.392;-4.472;2023-11-18T00:55:32;14.52;88.98
76239;SHT30;65043;48.392;-4.472;2023-11-18T00:57:57;14.53;88.73
76239;SHT30;65043;48.392;-4.472;2023-11-18T01:00:23;14.55;88.88
76239;SHT30;65043;48.392;-4.472;2023-11-18T01:02:53;14.55;89.06
76239;SHT30;65043;48.392;-4.472;2023-11-18T01:05:22;14.58;88.81
76239;SHT30;65043;48.392;-4.472;2023-11-18T01:07:48;14.58;88.87
76239;SHT30;65043;48.392;-4.472;2023-11-18T01:10:13;14.59;89.26
76239;SHT30;65043;48.392;-4.472;2023-11-18T01:12:39;14.62;89.11
76239;SHT30;65043;48.392;-4.472;2023-11-18T01:15:06;14.63;89.66
76239;SHT30;65043;48.392;-4.472;2023-11-18T01:17:33;14.66;89.18
76239;SHT30;65043;48.392;-4.472;2023-11-18T01:19:58;14.68;89.12
76239;SHT30;65043;48.392;-4.472;2023-11-18T01:22:26;14.69;89.16
76239;SHT30;65043;48.392;-4.472;2023-11-18T01:24:51;14.69;88.94
76239;SHT30;65043;48.392;-4.472;2023-11-18T01:27:17;14.72;88.98
76239;SHT30;65043;48.392;-4.472;2023-11-18T01:29:44;14.75;88.78
76239;SHT30;65043;48.392;-4.472;2023-11-18T01:32:12;14.75;89.30
76239;SHT30;65043;48.392;-4.472;2023-11-18T01:34:39;14.73;89.35
76239;SHT30;65043;48.392;-4.472;2023-11-18T01:37:05;14.76;89.19
76239;SHT30;65043;48.392;-4.472;2023-11-18T01:39:33;14.73;89.59
76239;SHT30;65043;48.392;-4.472;2023-11-18T01:41:59;14.79;89.71
76239;SHT30;65043;48.392;-4.472;2023-11-18T01:44:25;14.80;89.74
76239;SHT30;65043;48.392;-4.472;2023-11-18T01:46:56;14.81;89.47
76239;SHT30;65043;48.392;-4.472;2023-11-18T01:49:24;14.83;89.70
76239;SHT30;65043;48.392;-4.472;2023-11-18T01:51:52;14.86;89.54
76239;SHT30;65043;48.392;-4.472;2023-11-18T01:54:18;14.87;89.25
76239;SHT30;65043;48.392;-4.472;2023-11-18T01:56:47;14.86;89.60
76239;SHT30;65043;48.392;-4.472;2023-11-18T01:59:14;14.87;89.72
76239;SHT30;65043;48.392;-4.472;2023-11-18T02:01:52;14.84;90.24
76239;SHT30;65043;48.392;-4.472;2023-11-18T02:04:20;14.87;89.81
76239;SHT30;65043;48.392;-4.472;2023-11-18T02:06:48;14.93;89.55
76239;SHT30;65043;48.392;-4.472;2023-11-18T02:09:20;14.93;89.42
76239;SHT30;65043;48.392;-4.472;2023-11-18T02:11:56;14.94;89.99
76239;SHT30;65043;48.392;-4.472;2023-11-18T02:14:26;14.94;89.76
76239;SHT30;65043;48.392;-4.472;2023-11-18T02:16:56;14.97;89.57
76239;SHT30;65043;48.392;-4.472;2023-11-18T02:19:24;14.96;90.13
76239;SHT30;65043;48.392;-4.472;2023-11-18T02:21:52;14.96;89.69
76239;SHT30;65043;48.392;-4.472;2023-11-18T02:24:26;14.99;89.63
76239;SHT30;65043;48.392;-4.472;2023-11-18T02:26:53;15.01;89.40
76239;SHT30;65043;48.392;-4.472;2023-11-18T02:29:19;15.01;89.27
76239;SHT30;65043;48.392;-4.472;2023-11-18T02:31:46;15.03;89.48
76239;SHT30;65043;48.392;-4.472;2023-11-18T02:34:19;15.03;89.55
76239;SHT30;65043;48.392;-4.472;2023-11-18T02:36:49;15.03;89.35
76239;SHT30;65043;48.392;-4.472;2023-11-18T02:39:25;15.04;89.44
76239;SHT30;65043;48.392;-4.472;2023-11-18T02:41:55;15.04;89.49
76239;SHT30;65043;48.392;-4.472;2023-11-18T02:44:25;15.04;89.40
76239;SHT30;65043;48.392;-4.472;2023-11-18T02:46:51;15.06;89.60
76239;SHT30;65043;48.392;-4.472;2023-11-18T02:49:17;15.06;89.51
76239;SHT30;65043;48.392;-4.472;2023-11-18T02:51:43;15.10;89.56
76239;SHT30;65043;48.392;-4.472;2023-11-18T02:54:10;15.08;89.69
76239;SHT30;65043;48.392;-4.472;2023-11-18T02:56:37;15.08;89.45
76239;SHT30;65043;48.392;-4.472;2023-11-18T02:59:03;15.11;89.56
76239;SHT30;65043;48.392;-4.472;2023-11-18T03:01:33;15.14;89.26
76239;SHT30;65043;48.392;-4.472;2023-11-18T03:03:59;15.11;89.37
76239;SHT30;65043;48.392;-4.472;2023-11-18T03:06:27;15.12;89.54
76239;SHT30;65043;48.392;-4.472;2023-11-18T03:08:53;15.14;89.75
76239;SHT30;65043;48.392;-4.472;2023-11-18T03:11:19;15.14;89.79
76239;SHT30;65043;48.392;-4.472;2023-11-18T03:13:45;15.16;89.39
76239;SHT30;65043;48.392;-4.472;2023-11-18T03:16:13;15.17;89.35
76239;SHT30;65043;48.392;-4.472;2023-11-18T03:18:39;15.17;89.41
76239;SHT30;65043;48.392;-4.472;2023-11-18T03:21:10;15.16;89.55
76239;SHT30;65043;48.392;-4.472;2023-11-18T03:23:37;15.18;89.66
76239;SHT30;65043;48.392;-4.472;2023-11-18T03:26:03;15.17;89.56
76239;SHT30;65043;48.392;-4.472;2023-11-18T03:28:30;15.16;90.04
76239;SHT30;65043;48.392;-4.472;2023-11-18T03:30:55;15.17;89.74
76239;SHT30;65043;48.392;-4.472;2023-11-18T03:33:21;15.18;89.76
76239;SHT30;65043;48.392;-4.472;2023-11-18T03:35:46;15.14;89.84
76239;SHT30;65043;48.392;-4.472;2023-11-18T03:38:12;15.20;89.71
76239;SHT30;65043;48.392;-4.472;2023-11-18T03:40:38;15.23;89.90
76239;SHT30;65043;48.392;-4.472;2023-11-18T03:43:03;15.21;89.56
76239;SHT30;65043;48.392;-4.472;2023-11-18T03:45:29;15.23;89.41
76239;SHT30;65043;48.392;-4.472;2023-11-18T03:47:55;15.27;89.51
76239;SHT30;65043;48.392;-4.472;2023-11-18T03:50:21;15.26;89.61
76239;SHT30;65043;48.392;-4.472;2023-11-18T03:52:46;15.26;89.53
76239;SHT30;65043;48.392;-4.472;2023-11-18T03:55:12;15.24;89.74
76239;SHT30;65043;48.392;-4.472;2023-11-18T03:57:38;15.26;89.79
76239;SHT30;65043;48.392;-4.472;2023-11-18T04:00:03;15.27;89.78
76239;SHT30;65043;48.392;-4.472;2023-11-18T04:02:29;15.30;89.57
76239;SHT30;65043;48.392;-4.472;2023-11-18T04:04:55;15.27;89.41
76239;SHT30;65043;48.392;-4.472;2023-11-18T04:07:20;15.32;89.55
76239;SHT30;65043;48.392;-4.472;2023-11-18T04:09:47;15.32;89.77
76239;SHT30;65043;48.392;-4.472;2023-11-18T04:12:12;15.32;89.63
76239;SHT30;65043;48.392;-4.472;2023-11-18T04:14:40;15.35;89.63
76239;SHT30;65043;48.392;-4.472;2023-11-18T04:17:05;15.32;89.69
76239;SHT30;65043;48.392;-4.472;2023-11-18T04:19:31;15.30;90.15
76239;SHT30;65043;48.392;-4.472;2023-11-18T04:21:57;15.35;90.15
76239;SHT30;65043;48.392;-4.472;2023-11-18T04:24:22;15.37;89.93
76239;SHT30;65043;48.392;-4.472;2023-11-18T04:26:47;15.35;90.05
76239;SHT30;65043;48.392;-4.472;2023-11-18T04:29:15;15.37;90.00
76239;SHT30;65043;48.392;-4.472;2023-11-18T04:31:40;15.38;89.73
76239;SHT30;65043;48.392;-4.472;2023-11-18T04:34:06;15.41;89.50
76239;SHT30;65043;48.392;-4.472;2023-11-18T04:36:32;15.42;89.40
76239;SHT30;65043;48.392;-4.472;2023-11-18T04:38:57;15.42;89.46
76239;SHT30;65043;48.392;-4.472;2023-11-18T04:41:23;15.42;89.66
76239;SHT30;65043;48.392;-4.472;2023-11-18T04:43:48;15.42;89.75
76239;SHT30;65043;48.392;-4.472;2023-11-18T04:46:14;15.41;89.94
76239;SHT30;65043;48.392;-4.472;2023-11-18T04:48:39;15.40;90.10
76239;SHT30;65043;48.392;-4.472;2023-11-18T04:51:05;15.41;89.98
76239;SHT30;65043;48.392;-4.472;2023-11-18T04:53:31;15.44;89.95
76239;SHT30;65043;48.392;-4.472;2023-11-18T04:55:57;15.42;90.04
76239;SHT30;65043;48.392;-4.472;2023-11-18T04:58:23;15.42;90.02
76239;SHT30;65043;48.392;-4.472;2023-11-18T05:00:49;15.44;89.79
76239;SHT30;65043;48.392;-4.472;2023-11-18T05:03:16;15.45;90.00
76239;SHT30;65043;48.392;-4.472;2023-11-18T05:05:42;15.42;90.20
76239;SHT30;65043;48.392;-4.472;2023-11-18T05:08:10;15.42;90.01
76239;SHT30;65043;48.392;-4.472;2023-11-18T05:10:49;15.44;89.79
76239;SHT30;65043;48.392;-4.472;2023-11-18T05:13:15;15.45;90.02
76239;SHT30;65043;48.392;-4.472;2023-11-18T05:15:46;15.42;89.99
76239;SHT30;65043;48.392;-4.472;2023-11-18T05:18:12;15.45;89.95
76239;SHT30;65043;48.392;-4.472;2023-11-18T05:20:45;15.48;89.89
76239;SHT30;65043;48.392;-4.472;2023-11-18T05:23:12;15.49;89.83
76239;SHT30;65043;48.392;-4.472;2023-11-18T05:25:39;15.47;89.74
76239;SHT30;65043;48.392;-4.472;2023-11-18T05:28:05;15.48;89.74
76239;SHT30;65043;48.392;-4.472;2023-11-18T05:30:37;15.48;89.74
76239;SHT30;65043;48.392;-4.472;2023-11-18T05:33:03;15.48;90.00
76239;SHT30;65043;48.392;-4.472;2023-11-18T05:35:31;15.51;89.88
76239;SHT30;65043;48.392;-4.472;2023-11-18T05:37:57;15.51;89.83
76239;SHT30;65043;48.392;-4.472;2023-11-18T05:40:22;15.51;89.69
76239;SHT30;65043;48.392;-4.472;2023-11-18T05:42:48;15.51;89.87
76239;SHT30;65043;48.392;-4.472;2023-11-18T05:45:17;15.52;89.74
76239;SHT30;65043;48.392;-4.472;2023-11-18T05:47:56;15.54;89.77
76239;SHT30;65043;48.392;-4.472;2023-11-18T05:50:22;15.54;89.67
76239;SHT30;65043;48.392;-4.472;2023-11-18T05:52:50;15.57;89.67
76239;SHT30;65043;48.392;-4.472;2023-11-18T05:55:16;15.54;89.85
76239;SHT30;65043;48.392;-4.472;2023-11-18T05:57:41;15.55;89.92
76239;SHT30;65043;48.392;-4.472;2023-11-18T06:00:14;15.57;89.81
76239;SHT30;65043;48.392;-4.472;2023-11-18T06:02:44;15.58;89.68
76239;SHT30;65043;48.392;-4.472;2023-11-18T06:05:10;15.57;89.91
76239;SHT30;65043;48.392;-4.472;2023-11-18T06:07:38;15.57;89.58
76239;SHT30;65043;48.392;-4.472;2023-11-18T06:10:06;15.55;89.76
76239;SHT30;65043;48.392;-4.472;2023-11-18T06:12:32;15.62;89.32
76239;SHT30;65043;48.392;-4.472;2023-11-18T06:14:58;15.61;89.27
76239;SHT30;65043;48.392;-4.472;2023-11-18T06:17:24;15.62;89.30
76239;SHT30;65043;48.392;-4.472;2023-11-18T06:19:50;15.59;89.61
76239;SHT30;65043;48.392;-4.472;2023-11-18T06:22:15;15.62;89.60
76239;SHT30;65043;48.392;-4.472;2023-11-18T06:24:41;15.63;89.23
76239;SHT30;65043;48.392;-4.472;2023-11-18T06:27:06;15.62;89.58
76239;SHT30;65043;48.392;-4.472;2023-11-18T06:29:34;15.61;89.57
76239;SHT30;65043;48.392;-4.472;2023-11-18T06:31:59;15.68;89.12
76239;SHT30;65043;48.392;-4.472;2023-11-18T06:34:25;15.61;89.63
76239;SHT30;65043;48.392;-4.472;2023-11-18T06:36:51;15.62;89.39
76239;SHT30;65043;48.392;-4.472;2023-11-18T06:39:17;15.65;89.47
76239;SHT30;65043;48.392;-4.472;2023-11-18T06:41:44;15.63;89.25
76239;SHT30;65043;48.392;-4.472;2023-11-18T06:44:16;15.66;89.44
76239;SHT30;65043;48.392;-4.472;2023-11-18T06:46:43;15.66;89.20
76239;SHT30;65043;48.392;-4.472;2023-11-18T06:49:11;15.68;89.29
76239;SHT30;65043;48.392;-4.472;2023-11-18T06:51:40;15.65;89.46
76239;SHT30;65043;48.392;-4.472;2023-11-18T06:54:06;15.71;89.34
76239;SHT30;65043;48.392;-4.472;2023-11-18T06:56:39;15.69;89.33
76239;SHT30;65043;48.392;-4.472;2023-11-18T06:59:09;15.72;89.27
76239;SHT30;65043;48.392;-4.472;2023-11-18T07:01:38;15.72;89.37
76239;SHT30;65043;48.392;-4.472;2023-11-18T07:04:06;15.72;89.34
76239;SHT30;65043;48.392;-4.472;2023-11-18T07:06:35;15.71;89.51
76239;SHT30;65043;48.392;-4.472;2023-11-18T07:09:04;15.71;89.44
76239;SHT30;65043;48.392;-4.472;2023-11-18T07:11:37;15.73;89.22
76239;SHT30;65043;48.392;-4.472;2023-11-18T07:14:03;15.72;89.49
76239;SHT30;65043;48.392;-4.472;2023-11-18T07:16:28;15.72;89.36
76239;SHT30;65043;48.392;-4.472;2023-11-18T07:18:54;15.72;89.31
76239;SHT30;65043;48.392;-4.472;2023-11-18T07:21:19;15.78;89.28
76239;SHT30;65043;48.392;-4.472;2023-11-18T07:23:45;15.75;89.34
76239;SHT30;65043;48.392;-4.472;2023-11-18T07:26:11;15.75;89.62
76239;SHT30;65043;48.392;-4.472;2023-11-18T07:28:37;15.75;89.60
76239;SHT30;65043;48.392;-4.472;2023-11-18T07:31:02;15.77;89.48
76239;SHT30;65043;48.392;-4.472;2023-11-18T07:33:30;15.77;89.42
76239;SHT30;65043;48.392;-4.472;2023-11-18T07:36:03;15.81;89.38
76239;SHT30;65043;48.392;-4.472;2023-11-18T07:38:36;15.82;89.34
76239;SHT30;65043;48.392;-4.472;2023-11-18T07:41:04;15.81;89.53
76239;SHT30;65043;48.392;-4.472;2023-11-18T07:43:33;15.79;89.63
76239;SHT30;65043;48.392;-4.472;2023-11-18T07:46:08;15.82;89.42
76239;SHT30;65043;48.392;-4.472;2023-11-18T07:48:33;15.89;89.25
76239;SHT30;65043;48.392;-4.472;2023-11-18T07:51:03;15.82;89.38
76239;SHT30;65043;48.392;-4.472;2023-11-18T07:53:29;15.82;89.41
76239;SHT30;65043;48.392;-4.472;2023-11-18T07:55:55;15.82;89.33
76239;SHT30;65043;48.392;-4.472;2023-11-18T07:58:21;15.85;89.40
76239;SHT30;65043;48.392;-4.472;2023-11-18T08:00:48;15.83;89.32
76239;SHT30;65043;48.392;-4.472;2023-11-18T08:03:15;15.88;89.18
76239;SHT30;65043;48.392;-4.472;2023-11-18T08:05:42;15.86;89.26
76239;SHT30;65043;48.392;-4.472;2023-11-18T08:08:12;15.88;89.36
76239;SHT30;65043;48.392;-4.472;2023-11-18T08:10:39;15.83;89.35
76239;SHT30;65043;48.392;-4.472;2023-11-18T08:13:08;15.86;89.21
76239;SHT30;65043;48.392;-4.472;2023-11-18T08:15:43;15.86;89.26
76239;SHT30;65043;48.392;-4.472;2023-11-18T08:18:12;15.88;89.18
76239;SHT30;65043;48.392;-4.472;2023-11-18T08:20:38;15.89;89.19
76239;SHT30;65043;48.392;-4.472;2023-11-18T08:23:04;15.88;89.17
76239;SHT30;65043;48.392;-4.472;2023-11-18T08:25:30;15.88;89.18
76239;SHT30;65043;48.392;-4.472;2023-11-18T08:27:59;15.89;89.22
76239;SHT30;65043;48.392;-4.472;2023-11-18T08:30:26;15.86;89.21
76239;SHT30;65043;48.392;-4.472;2023-11-18T08:32:51;15.83;89.47
76239;SHT30;65043;48.392;-4.472;2023-11-18T08:35:17;15.81;89.50
76239;SHT30;65043;48.392;-4.472;2023-11-18T08:37:44;15.85;89.34
76239;SHT30;65043;48.392;-4.472;2023-11-18T08:40:11;15.86;89.26
76239;SHT30;65043;48.392;-4.472;2023-11-18T08:42:51;15.86;89.26
76239;SHT30;65043;48.392;-4.472;2023-11-18T08:45:18;15.82;89.55
76239;SHT30;65043;48.392;-4.472;2023-11-18T08:47:45;15.82;89.41
76239;SHT30;65043;48.392;-4.472;2023-11-18T08:50:13;15.83;89.55
76239;SHT30;65043;48.392;-4.472;2023-11-18T08:52:39;15.86;89.48
76239;SHT30;65043;48.392;-4.472;2023-11-18T08:55:11;15.86;89.50
76239;SHT30;65043;48.392;-4.472;2023-11-18T08:57:47;15.85;89.54
76239;SHT30;65043;48.392;-4.472;2023-11-18T09:00:29;15.85;89.38
76239;SHT30;65043;48.392;-4.472;2023-11-18T09:03:27;15.86;89.41
76239;SHT30;65043;48.392;-4.472;2023-11-18T09:12:19;15.88;89.34
76239;SHT30;65043;48.392;-4.472;2023-11-18T09:14:48;15.86;89.33
76239;SHT30;65043;48.392;-4.472;2023-11-18T09:17:17;15.86;89.33
76239;SHT30;65043;48.392;-4.472;2023-11-18T09:19:46;15.86;89.30
76239;SHT30;65043;48.392;-4.472;2023-11-18T09:22:11;15.89;89.18
76239;SHT30;65043;48.392;-4.472;2023-11-18T09:24:41;15.88;89.39
76239;SHT30;65043;48.392;-4.472;2023-11-18T09:27:07;15.89;89.40
76239;SHT30;65043;48.392;-4.472;2023-11-18T09:29:39;15.89;89.54
76239;SHT30;65043;48.392;-4.472;2023-11-18T09:32:18;15.89;89.39
76239;SHT30;65043;48.392;-4.472;2023-11-18T09:34:46;15.88;89.41
76239;SHT30;65043;48.392;-4.472;2023-11-18T09:37:15;15.90;89.29
76239;SHT30;65043;48.392;-4.472;2023-11-18T09:39:43;15.95;89.09
76239;SHT30;65043;48.392;-4.472;2023-11-18T09:42:12;15.96;89.07
76239;SHT30;65043;48.392;-4.472;2023-11-18T09:44:39;15.95;89.19
76239;SHT30;65043;48.392;-4.472;2023-11-18T09:47:08;15.95;89.35
76239;SHT30;65043;48.392;-4.472;2023-11-18T09:49:56;15.92;89.62
76239;SHT30;65043;48.392;-4.472;2023-11-18T09:52:28;15.90;89.69
76239;SHT30;65043;48.392;-4.472;2023-11-18T09:55:09;15.90;89.41
76239;SHT30;65043;48.392;-4.472;2023-11-18T09:57:44;15.90;89.44
76239;SHT30;65043;48.392;-4.472;2023-11-18T10:00:16;15.89;89.58
76239;SHT30;65043;48.392;-4.472;2023-11-18T10:02:58;15.90;89.46
76239;SHT30;65043;48.392;-4.472;2023-11-18T10:05:28;15.89;89.50
76239;SHT30;65043;48.392;-4.472;2023-11-18T10:07:56;15.88;89.67
76239;SHT30;65043;48.392;-4.472;2023-11-18T10:10:35;15.88;89.67
76239;SHT30;65043;48.392;-4.472;2023-11-18T10:13:36;15.90;89.59
76239;SHT30;65043;48.392;-4.472;2023-11-18T10:16:07;15.93;89.37
76239;SHT30;65043;48.392;-4.472;2023-11-18T10:18:33;15.90;89.50
76239;SHT30;65043;48.392;-4.472;2023-11-18T10:21:02;15.89;89.55
76239;SHT30;65043;48.392;-4.472;2023-11-18T10:23:29;15.93;89.37
76239;SHT30;65043;48.392;-4.472;2023-11-18T10:26:01;15.92;89.34
76239;SHT30;65043;48.392;-4.472;2023-11-18T10:28:35;15.89;89.57
76239;SHT30;65043;48.392;-4.472;2023-11-18T10:31:07;15.90;89.38
76239;SHT30;65043;48.392;-4.472;2023-11-18T10:33:37;15.90;89.45
76239;SHT30;65043;48.392;-4.472;2023-11-18T10:36:04;15.93;89.45
76239;SHT30;65043;48.392;-4.472;2023-11-18T10:38:31;15.90;89.50
76239;SHT30;65043;48.392;-4.472;2023-11-18T10:41:08;15.90;89.50
76239;SHT30;65043;48.392;-4.472;2023-11-18T10:43:37;15.92;89.51
76239;SHT30;65043;48.392;-4.472;2023-11-18T10:46:09;15.98;89.34
76239;SHT30;65043;48.392;-4.472;2023-11-18T10:52:07;15.99;89.17
76239;SHT30;65043;48.392;-4.472;2023-11-18T10:54:33;15.96;89.11
76239;SHT30;65043;48.392;-4.472;2023-11-18T10:57:05;15.96;89.17
76239;SHT30;65043;48.392;-4.472;2023-11-18T10:59:34;15.96;89.30
76239;SHT30;65043;48.392;-4.472;2023-11-18T11:02:19;15.90;89.38
76239;SHT30;65043;48.392;-4.472;2023-11-18T11:04:49;15.95;89.38
76239;SHT30;65043;48.392;-4.472;2023-11-18T11:07:34;15.96;89.26
76239;SHT30;65043;48.392;-4.472;2023-11-18T11:10:04;15.98;89.16
76239;SHT30;65043;48.392;-4.472;2023-11-18T11:19:29;15.98;89.19
76239;SHT30;65043;48.392;-4.472;2023-11-18T11:22:09;16.00;89.13
76239;SHT30;65043;48.392;-4.472;2023-11-18T11:24:44;16.02;89.00
76239;SHT30;65043;48.392;-4.472;2023-11-18T11:45:01;16.05;89.06
76239;SHT30;65043;48.392;-4.472;2023-11-18T11:47:29;16.05;89.06
76239;SHT30;65043;48.392;-4.472;2023-11-18T11:50:19;16.02;89.34
76239;SHT30;65043;48.392;-4.472;2023-11-18T11:52:53;16.02;89.11
76239;SHT30;65043;48.392;-4.472;2023-11-18T11:55:33;16.08;88.95
76239;SHT30;65043;48.392;-4.472;2023-11-18T11:58:04;16.08;88.99
76239;SHT30;65043;48.392;-4.472;2023-11-18T12:00:50;16.05;89.17
76239;SHT30;65043;48.392;-4.472;2023-11-18T12:03:16;16.05;89.11
76239;SHT30;65043;48.392;-4.472;2023-11-18T12:05:44;16.06;89.07
76239;SHT30;65043;48.392;-4.472;2023-11-18T12:08:12;16.03;89.12
76239;SHT30;65043;48.392;-4.472;2023-11-18T12:10:38;16.03;89.17
76239;SHT30;65043;48.392;-4.472;2023-11-18T12:13:11;16.06;89.18
76239;SHT30;65043;48.392;-4.472;2023-11-18T12:15:50;16.03;89.24
76239;SHT30;65043;48.392;-4.472;2023-11-18T12:18:20;16.00;89.31
76239;SHT30;65043;48.392;-4.472;2023-11-18T12:20:47;16.00;89.36
76239;SHT30;65043;48.392;-4.472;2023-11-18T12:23:16;16.05;89.07
76239;SHT30;65043;48.392;-4.472;2023-11-18T12:25:46;16.08;89.00
76239;SHT30;65043;48.392;-4.472;2023-11-18T12:28:29;16.06;89.02
76239;SHT30;65043;48.392;-4.472;2023-11-18T12:31:01;16.05;89.00
76239;SHT30;65043;48.392;-4.472;2023-11-18T12:39:32;16.08;88.81
76239;SHT30;65043;48.392;-4.472;2023-11-18T12:42:04;16.12;88.68
76239;SHT30;65043;48.392;-4.472;2023-11-18T12:44:36;16.10;88.74
76239;SHT30;65043;48.392;-4.472;2023-11-18T12:47:07;16.13;88.63
76239;SHT30;65043;48.392;-4.472;2023-11-18T12:49:47;16.16;88.52
76239;SHT30;65043;48.392;-4.472;2023-11-18T12:52:20;16.14;88.45
76239;SHT30;65043;48.392;-4.472;2023-11-18T12:54:47;16.14;88.25
76239;SHT30;65043;48.392;-4.472;2023-11-18T12:57:19;16.13;88.39
76239;SHT30;65043;48.392;-4.472;2023-11-18T12:59:48;16.14;88.32
76239;SHT30;65043;48.392;-4.472;2023-11-18T13:02:15;16.17;88.30
76239;SHT30;65043;48.392;-4.472;2023-11-18T13:04:49;16.19;88.15
76239;SHT30;65043;48.392;-4.472;2023-11-18T13:07:19;16.21;88.22
76239;SHT30;65043;48.392;-4.472;2023-11-18T13:09:46;16.14;88.35
76239;SHT30;65043;48.392;-4.472;2023-11-18T13:12:13;16.17;88.32
76239;SHT30;65043;48.392;-4.472;2023-11-18T13:14:45;16.16;88.38
76239;SHT30;65043;48.392;-4.472;2023-11-18T13:17:17;16.17;88.23
76239;SHT30;65043;48.392;-4.472;2023-11-18T13:19:43;16.17;88.52
76239;SHT30;65043;48.392;-4.472;2023-11-18T13:22:10;16.16;88.46
76239;SHT30;65043;48.392;-4.472;2023-11-18T13:24:40;16.17;88.39
76239;SHT30;65043;48.392;-4.472;2023-11-18T13:27:07;16.13;88.37
76239;SHT30;65043;48.392;-4.472;2023-11-18T13:30:03;16.14;88.48
76239;SHT30;65043;48.392;-4.472;2023-11-18T13:32:51;16.10;88.42
76239;SHT30;65043;48.392;-4.472;2023-11-18T13:35:17;16.12;88.40
76239;SHT30;65043;48.392;-4.472;2023-11-18T13:37:48;16.06;88.45
76239;SHT30;65043;48.392;-4.472;2023-11-18T13:40:24;16.03;88.62
76239;SHT30;65043;48.392;-4.472;2023-11-18T13:43:02;16.06;88.62
76239;SHT30;65043;48.392;-4.472;2023-11-18T13:45:33;16.00;88.69
76239;SHT30;65043;48.392;-4.472;2023-11-18T13:47:59;16.00;88.71
76239;SHT30;65043;48.392;-4.472;2023-11-18T13:50:26;16.00;88.86
76239;SHT30;65043;48.392;-4.472;2023-11-18T13:52:52;16.02;88.77
76239;SHT30;65043;48.392;-4.472;2023-11-18T13:55:18;16.06;88.65
76239;SHT30;65043;48.392;-4.472;2023-11-18T13:57:57;16.06;88.63
76239;SHT30;65043;48.392;-4.472;2023-11-18T14:00:25;16.08;88.58
76239;SHT30;65043;48.392;-4.472;2023-11-18T14:02:56;16.09;88.58
76239;SHT30;65043;48.392;-4.472;2023-11-18T14:05:22;16.09;88.55
76239;SHT30;65043;48.392;-4.472;2023-11-18T14:07:53;16.06;88.55
76239;SHT30;65043;48.392;-4.472;2023-11-18T14:10:25;16.05;88.61
76239;SHT30;65043;48.392;-4.472;2023-11-18T14:13:06;16.02;88.71
76239;SHT30;65043;48.392;-4.472;2023-11-18T14:15:37;16.05;88.46
76239;SHT30;65043;48.392;-4.472;2023-11-18T14:18:03;16.00;88.60
76239;SHT30;65043;48.392;-4.472;2023-11-18T14:20:29;16.05;88.56
76239;SHT30;65043;48.392;-4.472;2023-11-18T14:22:57;15.98;88.77
76239;SHT30;65043;48.392;-4.472;2023-11-18T14:25:23;15.96;88.94
76239;SHT30;65043;48.392;-4.472;2023-11-18T14:27:51;15.96;88.84
76239;SHT30;65043;48.392;-4.472;2023-11-18T14:30:18;15.99;88.76
76239;SHT30;65043;48.392;-4.472;2023-11-18T14:32:45;16.00;88.58
76239;SHT30;65043;48.392;-4.472;2023-11-18T14:35:12;16.00;88.66
76239;SHT30;65043;48.392;-4.472;2023-11-18T14:37:43;15.99;88.63
76239;SHT30;65043;48.392;-4.472;2023-11-18T14:40:14;16.03;88.60
76239;SHT30;65043;48.392;-4.472;2023-11-18T14:42:43;16.00;88.40
76239;SHT30;65043;48.392;-4.472;2023-11-18T14:45:12;15.99;88.55
76239;SHT30;65043;48.392;-4.472;2023-11-18T14:47:39;15.98;88.65
76239;SHT30;65043;48.392;-4.472;2023-11-18T14:50:05;15.98;88.54
76239;SHT30;65043;48.392;-4.472;2023-11-18T14:52:37;15.99;88.64
76239;SHT30;65043;48.392;-4.472;2023-11-18T14:55:05;15.98;88.73
76239;SHT30;65043;48.392;-4.472;2023-11-18T14:57:36;15.98;88.72
76239;SHT30;65043;48.392;-4.472;2023-11-18T15:00:02;15.93;88.80
76239;SHT30;65043;48.392;-4.472;2023-11-18T15:02:29;15.99;88.64
76239;SHT30;65043;48.392;-4.472;2023-11-18T15:04:56;15.96;88.60
76239;SHT30;65043;48.392;-4.472;2023-11-18T15:07:21;15.96;88.57
76239;SHT30;65043;48.392;-4.472;2023-11-18T15:09:47;15.93;88.67
76239;SHT30;65043;48.392;-4.472;2023-11-18T15:12:12;15.96;88.59
76239;SHT30;65043;48.392;-4.472;2023-11-18T15:14:38;15.98;88.58
76239;SHT30;65043;48.392;-4.472;2023-11-18T15:17:04;15.95;88.58
76239;SHT30;65043;48.392;-4.472;2023-11-18T15:19:29;15.96;88.57
76239;SHT30;65043;48.392;-4.472;2023-11-18T15:21:55;15.95;88.60
76239;SHT30;65043;48.392;-4.472;2023-11-18T15:24:20;15.92;88.61
76239;SHT30;65043;48.392;-4.472;2023-11-18T15:26:46;15.92;88.71
76239;SHT30;65043;48.392;-4.472;2023-11-18T15:29:12;15.95;88.65
76239;SHT30;65043;48.392;-4.472;2023-11-18T15:31:40;15.96;88.55
76239;SHT30;65043;48.392;-4.472;2023-11-18T15:34:06;16.00;88.50
76239;SHT30;65043;48.392;-4.472;2023-11-18T15:36:31;16.00;88.43
76239;SHT30;65043;48.392;-4.472;2023-11-18T15:38:57;16.02;88.45
76239;SHT30;65043;48.392;-4.472;2023-11-18T15:41:30;16.02;88.25
76239;SHT30;65043;48.392;-4.472;2023-11-18T15:43:56;16.02;88.25
76239;SHT30;65043;48.392;-4.472;2023-11-18T15:46:21;16.02;88.25
76239;SHT30;65043;48.392;-4.472;2023-11-18T15:48:47;15.98;88.07
76239;SHT30;65043;48.392;-4.472;2023-11-18T15:51:12;15.99;88.27
76239;SHT30;65043;48.392;-4.472;2023-11-18T15:53:41;15.99;88.21
76239;SHT30;65043;48.392;-4.472;2023-11-18T15:56:07;16.03;88.23
76239;SHT30;65043;48.392;-4.472;2023-11-18T15:58:34;15.99;88.29
76239;SHT30;65043;48.392;-4.472;2023-11-18T16:01:01;15.96;88.43
76239;SHT30;65043;48.392;-4.472;2023-11-18T16:03:27;15.95;88.42
76239;SHT30;65043;48.392;-4.472;2023-11-18T16:05:53;15.92;88.59